sensor_id;sensor_type;location;lat;lon;timestamp;temperature;humidity
10441;DHT22;5268;49.346;9.522;2022-12-08T04:22:41;3.00;99.90
10441;DHT22;5268;49.346;9.522;2022-12-08T04:27:43;3.00;99.90
10441;DHT22;5268;49.346;9.522;2022-12-08T04:32:45;2.90;99.90
10441;DHT22;5268;49.346;9.522;2022-12-08T04:37:48;2.90;99.90
10441;DHT22;5268;49.346;9.522;2022-12-08T04:42:50;2.90;99.90
10441;DHT22;5268;49.346;9.522;2022-12-08T04:47:52;2.90;99.90
10441;DHT22;5268;49.346;9.522;2022-12-08T04:52:55;2.90;99.90
10441;DHT22;5268;49.346;9.522;2022-12-08T04:57:57;2.90;99.90
10441;DHT22;5268;49.346;9.522;2022-12-08T05:02:59;2.90;99.90
10441;DHT22;5268;49.346;9.522;2022-12-08T05:08:03;2.90;99.90
10441;DHT22;5268;49.346;9.522;2022-12-08T05:13:06;2.90;99.90
10441;DHT22;5268;49.346;9.522;2022-12-08T05:18:08;2.90;99.90
10441;DHT22;5268;49.346;9.522;2022-12-08T05:23:11;2.90;99.90
10441;DHT22;5268;49.346;9.522;2022-12-08T05:28:13;2.90;99.90
10441;DHT22;5268;49.346;9.522;2022-12-08T05:33:15;2.90;99.90
10441;DHT22;5268;49.346;9.522;2022-12-08T05:38:19;2.90;99.90
10441;DHT22;5268;49.346;9.522;2022-12-08T05:43:21;2.90;99.90
10441;DHT22;5268;49.346;9.522;2022-12-08T05:48:23;2.90;99.90
10441;DHT22;5268;49.346;9.522;2022-12-08T05:53:27;2.90;99.90
10441;DHT22;5268;49.346;9.522;2022-12-08T05:58:29;2.90;99.90
10441;DHT22;5268;49.346;9.522;2022-12-08T06:03:31;2.90;99.90
10441;DHT22;5268;49.346;9.522;2022-12-08T06:08:35;2.90;99.90
10441;DHT22;5268;49.346;9.522;2022-12-08T06:13:37;2.90;99.90
10441;DHT22;5268;49.346;9.522;2022-12-08T06:18:39;2.90;99.90
10441;DHT22;5268;49.346;9.522;2022-12-08T06:23:42;2.90;99.90
10441;DHT22;5268;49.346;9.522;2022-12-08T06:28:44;2.90;99.90
10441;DHT22;5268;49.346;9.522;2022-12-08T06:33:47;2.90;99.90
10441;DHT22;5268;49.346;9.522;2022-12-08T06:38:51;2.90;99.90
10441;DHT22;5268;49.346;9.522;2022-12-08T06:43:55;2.90;99.90
10441;DHT22;5268;49.346;9.522;2022-12-08T06:48:57;2.90;99.90
10441;DHT22;5268;49.346;9.522;2022-12-08T06:54:01;2.80;99.90
10441;DHT22;5268;49.346;9.522;2022-12-08T06:59:03;2.90;99.90
10441;DHT22;5268;49.346;9.522;2022-12-08T07:04:05;2.80;99.90
10441;DHT22;5268;49.346;9.522;2022-12-08T07:09:08;2.80;99.90
10441;DHT22;5268;49.346;9.522;2022-12-08T07:14:11;2.80;99.90
10441;DHT22;5268;49.346;9.522;2022-12-08T07:19:14;2.80;99.90
10441;DHT22;5268;49.346;9.522;2022-12-08T07:24:17;2.80;99.90
10441;DHT22;5268;49.346;9.522;2022-12-08T07:29:19;2.80;99.90
10441;DHT22;5268;49.346;9.522;2022-12-08T07:34:21;2.80;99.90
10441;DHT22;5268;49.346;9.522;2022-12-08T07:39:25;2.80;99.90
10441;DHT22;5268;49.346;9.522;2022-12-08T07:44:27;2.80;99.90
10441;DHT22;5268;49.346;9.522;2022-12-08T07:49:29;2.80;99.90
10441;DHT22;5268;49.346;9.522;2022-12-08T07:54:32;2.90;99.90
10441;DHT22;5268;49.346;9.522;2022-12-08T07:59:35;2.90;99.90
10441;DHT22;5268;49.346;9.522;2022-12-08T08:04:37;2.90;99.90
10441;DHT22;5268;49.346;9.522;2022-12-08T08:09:41;3.00;99.90
10441;DHT22;5268;49.346;9.522;2022-12-08T08:14:43;2.90;99.90
10441;DHT22;5268;49.346;9.522;2022-12-08T08:19:45;2.90;99.90
10441;DHT22;5268;49.346;9.522;2022-12-08T08:24:48;3.00;99.90
10441;DHT22;5268;49.346;9.522;2022-12-08T08:29:50;3.00;99.90
10441;DHT22;5268;49.346;9.522;2022-12-08T08:34:52;3.00;99.90
10441;DHT22;5268;49.346;9.522;2022-12-08T08:39:56;3.00;99.90
10441;DHT22;5268;49.346;9.522;2022-12-08T08:44:58;3.00;99.90
10441;DHT22;5268;49.346;9.522;2022-12-08T08:50:00;3.00;99.90
10441;DHT22;5268;49.346;9.522;2022-12-08T08:55:04;3.00;99.90
10441;DHT22;5268;49.346;9.522;2022-12-08T09:00:08;3.00;99.90
10441;DHT22;5268;49.346;9.522;2022-12-08T09:05:10;3.10;99.90
10441;DHT22;5268;49.346;9.522;2022-12-08T09:10:14;3.10;99.90
10441;DHT22;5268;49.346;9.522;2022-12-08T09:15:16;3.10;99.90
10441;DHT22;5268;49.346;9.522;2022-12-08T09:20:20;3.20;99.90
10441;DHT22;5268;49.346;9.522;2022-12-08T09:25:23;3.20;99.90
10441;DHT22;5268;49.346;9.522;2022-12-08T09:30:25;3.20;99.90
10441;DHT22;5268;49.346;9.522;2022-12-08T09:35:27;3.20;99.90
10441;DHT22;5268;49.346;9.522;2022-12-08T09:40:33;3.30;99.90
10441;DHT22;5268;49.346;9.522;2022-12-08T09:45:38;3.30;99.90
10441;DHT22;5268;49.346;9.522;2022-12-08T09:50:44;3.30;99.90
10441;DHT22;5268;49.346;9.522;2022-12-08T09:55:50;3.40;99.90
10441;DHT22;5268;49.346;9.522;2022-12-08T10:00:53;3.40;99.90
10441;DHT22;5268;49.346;9.522;2022-12-08T10:06:02;3.40;99.90
10441;DHT22;5268;49.346;9.522;2022-12-08T10:11:10;3.40;99.90
10441;DHT22;5268;49.346;9.522;2022-12-08T10:16:19;3.50;99.90
10441;DHT22;5268;49.346;9.522;2022-12-08T10:21:26;3.60;99.90
10441;DHT22;5268;49.346;9.522;2022-12-08T10:26:30;3.60;99.90
10441;DHT22;5268;49.346;9.522;2022-12-08T10:31:32;3.60;99.90
10441;DHT22;5268;49.346;9.522;2022-12-08T10:36:48;3.80;99.90
10441;DHT22;5268;49.346;9.522;2022-12-08T10:41:52;3.80;99.90
10441;DHT22;5268;49.346;9.522;2022-12-08T10:46:54;3.80;99.90
10441;DHT22;5268;49.346;9.522;2022-12-08T10:51:56;3.80;99.90
10441;DHT22;5268;49.346;9.522;2022-12-08T10:57:00;3.80;99.90
10441;DHT22;5268;49.346;9.522;2022-12-08T11:02:02;3.80;99.90
10441;DHT22;5268;49.346;9.522;2022-12-08T11:07:05;3.90;99.90
10441;DHT22;5268;49.346;9.522;2022-12-08T11:12:14;3.80;99.90
10441;DHT22;5268;49.346;9.522;2022-12-08T11:17:23;3.80;99.90
10441;DHT22;5268;49.346;9.522;2022-12-08T11:22:30;3.80;99.90
10441;DHT22;5268;49.346;9.522;2022-12-08T11:27:35;3.80;99.90
10441;DHT22;5268;49.346;9.522;2022-12-08T11:32:38;3.90;99.90
10441;DHT22;5268;49.346;9.522;2022-12-08T11:37:43;3.80;99.90
10441;DHT22;5268;49.346;9.522;2022-12-08T11:42:53;3.70;99.90
10441;DHT22;5268;49.346;9.522;2022-12-08T11:48:04;3.80;99.90
10441;DHT22;5268;49.346;9.522;2022-12-08T11:53:17;3.90;99.90
10441;DHT22;5268;49.346;9.522;2022-12-08T11:58:26;4.00;99.90
10441;DHT22;5268;49.346;9.522;2022-12-08T12:03:34;4.10;99.90
10441;DHT22;5268;49.346;9.522;2022-12-08T12:08:46;4.10;99.90
10441;DHT22;5268;49.346;9.522;2022-12-08T12:13:59;4.10;99.90
10441;DHT22;5268;49.346;9.522;2022-12-08T12:19:10;4.20;99.90
10441;DHT22;5268;49.346;9.522;2022-12-08T12:24:18;4.30;99.90
10441;DHT22;5268;49.346;9.522;2022-12-08T12:29:24;4.30;99.90
10441;DHT22;5268;49.346;9.522;2022-12-08T12:34:30;4.30;99.90
10441;DHT22;5268;49.346;9.522;2022-12-08T12:39:46;4.30;99.90
10441;DHT22;5268;49.346;9.522;2022-12-08T12:50:43;4.40;99.90
10441;DHT22;5268;49.346;9.522;2022-12-08T12:55:55;4.40;99.90
10441;DHT22;5268;49.346;9.522;2022-12-08T13:06:38;4.40;99.90
10441;DHT22;5268;49.346;9.522;2022-12-08T13:11:47;4.40;99.90
10441;DHT22;5268;49.346;9.522;2022-12-08T13:16:52;4.30;99.90
10441;DHT22;5268;49.346;9.522;2022-12-08T13:21:56;4.30;99.90
10441;DHT22;5268;49.346;9.522;2022-12-08T13:27:32;4.30;99.90
10441;DHT22;5268;49.346;9.522;2022-12-08T13:32:54;4.30;99.90
10441;DHT22;5268;49.346;9.522;2022-12-08T13:37:59;4.30;99.90
10441;DHT22;5268;49.346;9.522;2022-12-08T13:43:08;4.30;99.90
10441;DHT22;5268;49.346;9.522;2022-12-08T13:48:14;4.30;99.90
10441;DHT22;5268;49.346;9.522;2022-12-08T13:53:26;4.30;99.90
10441;DHT22;5268;49.346;9.522;2022-12-08T13:58:31;4.30;99.90
10441;DHT22;5268;49.346;9.522;2022-12-08T14:03:43;4.30;99.90
10441;DHT22;5268;49.346;9.522;2022-12-08T14:08:51;4.30;99.90
10441;DHT22;5268;49.346;9.522;2022-12-08T14:13:55;4.30;99.90
10441;DHT22;5268;49.346;9.522;2022-12-08T14:19:03;4.40;99.90
10441;DHT22;5268;49.346;9.522;2022-12-08T14:24:08;4.40;99.90
10441;DHT22;5268;49.346;9.522;2022-12-08T14:29:33;4.40;99.90
10441;DHT22;5268;49.346;9.522;2022-12-08T14:34:37;4.40;99.90
10441;DHT22;5268;49.346;9.522;2022-12-08T14:39:41;4.40;99.90
10441;DHT22;5268;49.346;9.522;2022-12-08T14:44:44;4.40;99.90
10441;DHT22;5268;49.346;9.522;2022-12-08T14:49:46;4.40;99.90
10441;DHT22;5268;49.346;9.522;2022-12-08T14:54:50;4.40;99.90
10441;DHT22;5268;49.346;9.522;2022-12-08T14:59:53;4.40;99.90
10441;DHT22;5268;49.346;9.522;2022-12-08T15:04:59;4.30;99.90
10441;DHT22;5268;49.346;9.522;2022-12-08T15:10:23;4.30;99.90
10441;DHT22;5268;49.346;9.522;2022-12-08T15:15:26;4.30;99.90
10441;DHT22;5268;49.346;9.522;2022-12-08T15:20:33;4.30;99.90
10441;DHT22;5268;49.346;9.522;2022-12-08T15:25:44;4.30;99.90
10441;DHT22;5268;49.346;9.522;2022-12-08T15:30:46;4.30;99.90
10441;DHT22;5268;49.346;9.522;2022-12-08T15:35:50;4.30;99.90
10441;DHT22;5268;49.346;9.522;2022-12-08T15:40:54;4.20;99.90
10441;DHT22;5268;49.346;9.522;2022-12-08T15:45:57;4.20;99.90
10441;DHT22;5268;49.346;9.522;2022-12-08T15:51:00;4.30;99.90
10441;DHT22;5268;49.346;9.522;2022-12-08T15:56:06;4.30;99.90
10441;DHT22;5268;49.346;9.522;2022-12-08T16:01:08;4.40;99.90
10441;DHT22;5268;49.346;9.522;2022-12-08T16:06:16;4.40;99.90
10441;DHT22;5268;49.346;9.522;2022-12-08T16:11:20;4.50;99.90
10441;DHT22;5268;49.346;9.522;2022-12-08T16:16:39;4.40;99.90
10441;DHT22;5268;49.346;9.522;2022-12-08T16:21:43;4.40;99.90
10441;DHT22;5268;49.346;9.522;2022-12-08T16:26:46;4.40;99.90
10441;DHT22;5268;49.346;9.522;2022-12-08T16:31:49;4.40;99.90
10441;DHT22;5268;49.346;9.522;2022-12-08T16:36:51;4.50;99.90
10441;DHT22;5268;49.346;9.522;2022-12-08T16:41:54;4.50;99.90
10441;DHT22;5268;49.346;9.522;2022-12-08T16:47:14;4.50;99.90
10441;DHT22;5268;49.346;9.522;2022-12-08T16:52:16;4.50;99.90
10441;DHT22;5268;49.346;9.522;2022-12-08T16:57:19;4.50;99.90
10441;DHT22;5268;49.346;9.522;2022-12-08T17:02:21;4.50;99.90
10441;DHT22;5268;49.346;9.522;2022-12-08T17:07:23;4.40;99.90
10441;DHT22;5268;49.346;9.522;2022-12-08T17:12:27;4.40;99.90
10441;DHT22;5268;49.346;9.522;2022-12-08T17:17:30;4.40;99.90
10441;DHT22;5268;49.346;9.522;2022-12-08T17:22:34;4.30;99.90
10441;DHT22;5268;49.346;9.522;2022-12-08T17:27:38;4.30;99.90
10441;DHT22;5268;49.346;9.522;2022-12-08T17:32:40;4.30;99.90
10441;DHT22;5268;49.346;9.522;2022-12-08T17:37:43;4.30;99.90
10441;DHT22;5268;49.346;9.522;2022-12-08T17:42:46;4.30;99.90
10441;DHT22;5268;49.346;9.522;2022-12-08T17:47:48;4.20;99.90
10441;DHT22;5268;49.346;9.522;2022-12-08T17:52:50;4.20;99.90
10441;DHT22;5268;49.346;9.522;2022-12-08T17:57:54;4.20;99.90
10441;DHT22;5268;49.346;9.522;2022-12-08T18:02:56;4.20;99.90
10441;DHT22;5268;49.346;9.522;2022-12-08T18:07:59;4.10;99.90
10441;DHT22;5268;49.346;9.522;2022-12-08T18:13:02;4.10;99.90
10441;DHT22;5268;49.346;9.522;2022-12-08T18:18:04;4.20;99.90
10441;DHT22;5268;49.346;9.522;2022-12-08T18:23:06;4.10;99.90
10441;DHT22;5268;49.346;9.522;2022-12-08T18:28:10;4.10;99.90
10441;DHT22;5268;49.346;9.522;2022-12-08T18:33:12;4.10;99.90
10441;DHT22;5268;49.346;9.522;2022-12-08T18:38:14;4.10;99.90
10441;DHT22;5268;49.346;9.522;2022-12-08T18:43:17;4.10;99.90
10441;DHT22;5268;49.346;9.522;2022-12-08T18:48:19;4.10;99.90
10441;DHT22;5268;49.346;9.522;2022-12-08T18:53:21;4.10;99.90
10441;DHT22;5268;49.346;9.522;2022-12-08T18:58:24;4.10;99.90
10441;DHT22;5268;49.346;9.522;2022-12-08T19:03:27;4.10;99.90
10441;DHT22;5268;49.346;9.522;2022-12-08T19:08:29;4.10;99.90
10441;DHT22;5268;49.346;9.522;2022-12-08T19:13:32;4.10;99.90
10441;DHT22;5268;49.346;9.522;2022-12-08T19:18:34;4.10;99.90
10441;DHT22;5268;49.346;9.522;2022-12-08T19:23:39;4.10;99.90
10441;DHT22;5268;49.346;9.522;2022-12-08T19:28:43;4.00;99.90
10441;DHT22;5268;49.346;9.522;2022-12-08T19:33:46;4.00;99.90
10441;DHT22;5268;49.346;9.522;2022-12-08T19:38:48;4.00;99.90
10441;DHT22;5268;49.346;9.522;2022-12-08T19:44:15;4.00;99.90
10441;DHT22;5268;49.346;9.522;2022-12-08T19:49:35;4.00;99.90
10441;DHT22;5268;49.346;9.522;2022-12-08T19:54:37;4.00;99.90
10441;DHT22;5268;49.346;9.522;2022-12-08T19:59:41;4.00;99.90
10441;DHT22;5268;49.346;9.522;2022-12-08T20:04:43;3.90;99.90
10441;DHT22;5268;49.346;9.522;2022-12-08T20:09:44;3.90;99.90
10441;DHT22;5268;49.346;9.522;2022-12-08T20:14:48;3.80;99.90
10441;DHT22;5268;49.346;9.522;2022-12-08T20:19:50;3.90;99.90
10441;DHT22;5268;49.346;9.522;2022-12-08T20:24:52;3.90;99.90
10441;DHT22;5268;49.346;9.522;2022-12-08T20:29:55;3.90;99.90
10441;DHT22;5268;49.346;9.522;2022-12-08T20:34:57;3.90;99.90
10441;DHT22;5268;49.346;9.522;2022-12-08T20:39:59;3.90;99.90
10441;DHT22;5268;49.346;9.522;2022-12-08T20:45:04;3.80;99.90
10441;DHT22;5268;49.346;9.522;2022-12-08T20:50:08;3.80;99.90
10441;DHT22;5268;49.346;9.522;2022-12-08T20:55:10;3.80;99.90
10441;DHT22;5268;49.346;9.522;2022-12-08T21:00:15;3.80;99.90
10441;DHT22;5268;49.346;9.522;2022-12-08T21:05:17;3.80;99.90
10441;DHT22;5268;49.346;9.522;2022-12-08T21:10:19;3.80;99.90
10441;DHT22;5268;49.346;9.522;2022-12-08T21:15:23;3.80;99.90
10441;DHT22;5268;49.346;9.522;2022-12-08T21:20:25;3.80;99.90
10441;DHT22;5268;49.346;9.522;2022-12-08T21:25:27;3.80;99.90
10441;DHT22;5268;49.346;9.522;2022-12-08T21:30:30;3.80;99.90
10441;DHT22;5268;49.346;9.522;2022-12-08T21:35:32;3.70;99.90
10441;DHT22;5268;49.346;9.522;2022-12-08T21:40:35;3.70;99.90
10441;DHT22;5268;49.346;9.522;2022-12-08T21:45:38;3.70;99.90
10441;DHT22;5268;49.346;9.522;2022-12-08T21:50:40;3.60;99.90
10441;DHT22;5268;49.346;9.522;2022-12-08T21:55:42;3.60;99.90
10441;DHT22;5268;49.346;9.522;2022-12-08T22:00:45;3.50;99.90
10441;DHT22;5268;49.346;9.522;2022-12-08T22:05:47;3.50;99.90
10441;DHT22;5268;49.346;9.522;2022-12-08T22:10:49;3.40;99.90
10441;DHT22;5268;49.346;9.522;2022-12-08T22:15:56;3.30;99.90
10441;DHT22;5268;49.346;9.522;2022-12-08T22:20:58;3.30;99.90
10441;DHT22;5268;49.346;9.522;2022-12-08T22:26:02;3.20;99.90
